Time;durP1;ratioP1;P1;durP2;ratioP2;P2;SDS_P1;SDS_P2;PMS_P1;PMS_P2;Temp;Humidity;BMP_temperature;BMP_pressure;BME280_temperature;BME280_humidity;BME280_pressure;Samples;Min_cycle;Max_cycle;Signal;HPM_P1;HPM_P2
2021/04/14 02:28:00;;;;;;;15.85;7.40;;;3.10;99.90;;;;;;6084467;23;20026;31
2021/04/14 08:02:54;;;;;;;;;;;6.80;99.90;;;;;;4987793;23;20062;-85
2021/04/14 08:05:23;;;;;;;24.75;14.15;;;7.10;99.90;;;;;;4939511;29;19923;-86
2021/04/14 08:07:50;;;;;;;26.95;14.40;;;7.50;99.90;;;;;;4939090;29;20134;-87
2021/04/14 08:10:18;;;;;;;25.35;12.32;;;7.70;99.90;;;;;;4939111;29;20052;-88
2021/04/14 08:13:00;;;;;;;22.75;13.00;;;7.80;99.90;;;;;;4938966;29;20162;-88
2021/04/14 08:15:32;;;;;;;21.52;12.68;;;8.10;99.90;;;;;;4939262;29;20051;-88
2021/04/14 08:18:13;;;;;;;30.00;11.80;;;8.20;99.90;;;;;;4938706;29;20381;-92
2021/04/14 08:20:40;;;;;;;22.73;12.65;;;8.30;99.90;;;;;;4945473;29;20441;-90
2021/04/14 08:23:11;;;;;;;19.13;12.48;;;8.30;99.90;;;;;;4938475;29;20122;-89
2021/04/14 08:25:40;;;;;;;24.30;12.88;;;8.40;99.90;;;;;;4938606;29;20060;-88
2021/04/14 08:28:07;;;;;;;21.75;12.75;;;8.50;99.90;;;;;;4938491;29;20086;-87
2021/04/14 08:30:34;;;;;;;20.90;11.80;;;8.60;99.90;;;;;;4938459;29;20052;-88
2021/04/14 08:33:03;;;;;;;17.73;10.32;;;8.50;99.90;;;;;;4938525;29;20058;-89
2021/04/14 08:35:30;;;;;;;18.10;11.63;;;8.60;99.90;;;;;;4938469;29;20047;-89
2021/04/14 08:38:05;;;;;;;22.83;12.48;;;8.60;99.90;;;;;;4938325;29;20047;-89
2021/04/14 08:40:33;;;;;;;19.77;12.43;;;8.70;99.90;;;;;;4938541;29;20113;-89
2021/04/14 08:43:07;;;;;;;22.63;11.73;;;8.70;99.90;;;;;;4938194;29;20081;-89
2021/04/14 08:45:36;;;;;;;20.95;10.10;;;8.60;99.90;;;;;;4938125;29;20465;-89
2021/04/14 08:48:07;;;;;;;24.83;12.57;;;8.60;99.90;;;;;;4938243;29;20059;-89
2021/04/14 08:50:35;;;;;;;19.88;12.07;;;8.70;99.90;;;;;;4938072;29;20047;-89
2021/04/14 08:53:04;;;;;;;22.77;12.40;;;8.70;99.90;;;;;;4937896;29;20472;-89
2021/04/14 08:55:31;;;;;;;24.52;13.32;;;8.80;99.90;;;;;;4937886;29;20139;-87
2021/04/14 08:57:58;;;;;;;24.52;13.68;;;8.90;99.90;;;;;;4938066;29;20114;-87
2021/04/14 09:00:25;;;;;;;20.17;11.02;;;9.10;99.90;;;;;;4938146;29;20074;-86
2021/04/14 09:02:53;;;;;;;18.70;11.27;;;9.20;99.90;;;;;;4937828;29;20066;-87
2021/04/14 09:05:21;;;;;;;20.58;11.38;;;9.40;99.90;;;;;;4938007;29;20051;-87
2021/04/14 09:07:48;;;;;;;21.15;12.23;;;9.50;99.90;;;;;;4937774;29;20058;-87
2021/04/14 09:10:35;;;;;;;17.63;9.93;;;9.50;99.90;;;;;;4937950;29;20051;-86
2021/04/14 09:13:02;;;;;;;14.50;8.38;;;9.40;99.90;;;;;;4937373;29;20058;-87
2021/04/14 09:15:29;;;;;;;16.15;9.18;;;9.40;99.90;;;;;;4937409;29;20126;-86
2021/04/14 09:18:01;;;;;;;19.15;10.25;;;9.30;99.90;;;;;;4937606;29;20206;-87
2021/04/14 09:20:29;;;;;;;20.65;10.50;;;9.20;99.90;;;;;;4937873;29;20047;-87
2021/04/14 09:23:00;;;;;;;35.88;19.13;;;9.20;99.90;;;;;;4937472;29;20056;-87
2021/04/14 09:25:32;;;;;;;15.60;9.63;;;9.10;99.90;;;;;;4937634;29;20052;-87
2021/04/14 09:28:00;;;;;;;14.95;8.05;;;9.10;99.90;;;;;;4937692;29;20047;-87
2021/04/14 09:30:32;;;;;;;13.88;7.18;;;9.20;99.90;;;;;;4937362;29;20055;-86
2021/04/14 09:33:13;;;;;;;14.95;8.52;;;9.20;99.90;;;;;;4937648;29;20055;-86
2021/04/14 09:35:55;;;;;;;9.70;6.32;;;9.30;99.90;;;;;;4937706;29;20055;-89
2021/04/14 09:38:38;;;;;;;10.32;6.60;;;9.40;99.90;;;;;;4937587;29;20051;-88
2021/04/14 09:41:17;;;;;;;13.13;7.22;;;9.60;99.90;;;;;;4938244;29;20591;-90
2021/04/14 09:43:44;;;;;;;13.02;6.97;;;9.60;99.90;;;;;;4946531;29;20115;-89
2021/04/14 09:46:12;;;;;;;13.75;6.97;;;9.80;99.90;;;;;;4937282;29;20055;-88
2021/04/14 09:48:41;;;;;;;15.27;6.88;;;9.90;99.90;;;;;;4941289;29;20082;-89
2021/04/14 09:51:18;;;;;;;13.07;7.85;;;10.00;99.90;;;;;;4939321;29;20394;-88
2021/04/14 09:53:45;;;;;;;14.77;7.38;;;10.10;99.90;;;;;;4937249;29;20082;-88
2021/04/14 09:56:15;;;;;;;11.23;6.90;;;10.20;99.90;;;;;;4937151;29;20048;-87
2021/04/14 09:58:44;;;;;;;10.32;6.32;;;10.30;99.90;;;;;;4937294;29;20113;-87
2021/04/14 10:01:14;;;;;;;13.20;6.97;;;10.40;99.90;;;;;;4936890;29;20068;-87
2021/04/14 10:03:44;;;;;;;10.88;5.90;;;10.40;99.90;;;;;;4940428;29;20062;-87
2021/04/14 10:06:13;;;;;;;11.63;6.47;;;10.40;99.90;;;;;;4941030;29;20147;-87
2021/04/14 10:08:40;;;;;;;12.82;6.25;;;10.40;99.90;;;;;;4941067;29;20052;-87
2021/04/14 10:11:07;;;;;;;12.15;7.22;;;10.40;99.90;;;;;;4941143;29;20048;-86
2021/04/14 10:13:34;;;;;;;11.77;6.50;;;10.50;99.90;;;;;;4941066;29;20056;-87
2021/04/14 10:16:00;;;;;;;10.57;5.53;;;10.40;99.90;;;;;;4940415;29;20056;-86
2021/04/14 10:18:28;;;;;;;11.27;6.20;;;10.40;99.90;;;;;;4940745;29;20054;-87
2021/04/14 10:20:56;;;;;;;9.75;5.75;;;10.40;99.90;;;;;;4940640;29;20095;-87
2021/04/14 10:23:23;;;;;;;10.50;5.93;;;10.40;99.90;;;;;;4940636;29;20453;-87
2021/04/14 10:25:50;;;;;;;14.60;7.47;;;10.40;99.90;;;;;;4940649;29;20153;-87
2021/04/14 10:28:21;;;;;;;10.32;5.68;;;9.30;99.90;;;;;;4940777;29;20056;-87
2021/04/14 10:30:49;;;;;;;10.00;5.97;;;10.50;99.90;;;;;;4940873;29;20063;-87
2021/04/14 10:33:18;;;;;;;9.25;5.78;;;10.50;99.90;;;;;;4940312;29;20461;-86
2021/04/14 10:35:45;;;;;;;10.00;5.35;;;10.60;99.90;;;;;;4940615;29;20052;-86
2021/04/14 10:38:13;;;;;;;11.27;5.45;;;10.60;99.90;;;;;;4940285;29;20372;-86
2021/04/14 10:40:41;;;;;;;8.30;5.50;;;10.60;99.90;;;;;;4940538;29;20051;-87
2021/04/14 10:43:12;;;;;;;8.65;5.22;;;10.60;99.90;;;;;;4940266;29;20465;-87
2021/04/14 10:45:52;;;;;;;11.50;7.13;;;10.60;99.90;;;;;;4940099;29;20479;-86
2021/04/14 10:48:18;;;;;;;12.05;6.95;;;10.60;99.90;;;;;;4940439;29;20079;-86
2021/04/14 10:50:45;;;;;;;13.77;6.63;;;10.40;99.90;;;;;;4940050;29;20430;-86
2021/04/14 10:53:12;;;;;;;10.88;6.15;;;10.20;99.90;;;;;;4940122;29;20055;-87
2021/04/14 10:55:41;;;;;;;11.18;6.30;;;10.20;99.90;;;;;;4940014;29;20052;-87
2021/04/14 10:58:09;;;;;;;8.65;5.65;;;10.10;99.90;;;;;;4940146;29;20424;-86
2021/04/14 11:00:36;;;;;;;9.75;6.20;;;10.10;99.90;;;;;;4940025;28;20055;-85
2021/04/14 11:03:07;;;;;;;9.75;6.47;;;10.20;99.90;;;;;;4939941;29;20118;-86
2021/04/14 11:05:34;;;;;;;11.77;6.45;;;10.40;99.90;;;;;;4940171;29;20052;-86
2021/04/14 11:08:01;;;;;;;13.88;6.57;;;10.60;99.90;;;;;;4939797;29;20089;-86
2021/04/14 11:10:30;;;;;;;10.75;7.35;;;10.70;99.90;;;;;;4939805;29;20047;-86
2021/04/14 11:12:56;;;;;;;11.30;6.72;;;10.80;99.90;;;;;;4939646;29;20052;-85
2021/04/14 11:15:24;;;;;;;11.93;5.90;;;10.80;99.90;;;;;;4938823;29;20055;-86
2021/04/14 11:17:58;;;;;;;10.27;5.90;;;10.70;99.90;;;;;;4939805;29;20052;-86
2021/04/14 11:20:26;;;;;;;19.23;7.45;;;10.60;99.90;;;;;;4939460;29;20060;-86
2021/04/14 11:22:55;;;;;;;16.92;8.88;;;10.60;99.90;;;;;;4939707;29;20065;-86
2021/04/14 11:25:26;;;;;;;11.73;6.72;;;10.50;99.90;;;;;;4939628;29;20047;-86
2021/04/14 11:28:04;;;;;;;11.00;6.07;;;10.40;99.90;;;;;;4939549;29;20392;-86
2021/04/14 11:30:31;;;;;;;8.57;5.60;;;10.40;99.90;;;;;;4939692;29;20055;-86
2021/04/14 11:33:00;;;;;;;9.32;6.43;;;10.40;99.10;;;;;;4939506;29;20051;-86
2021/04/14 11:35:34;;;;;;;9.93;6.05;;;10.30;99.60;;;;;;4939309;29;20058;-85
2021/04/14 11:38:01;;;;;;;8.52;5.53;;;10.30;99.90;;;;;;4939454;29;20060;-86
2021/04/14 11:40:38;;;;;;;11.70;5.88;;;10.30;99.90;;;;;;4939504;29;20052;-86
2021/04/14 11:43:06;;;;;;;7.72;4.90;;;10.30;99.90;;;;;;4939651;29;20055;-86
2021/04/14 11:45:35;;;;;;;10.20;5.90;;;10.30;99.90;;;;;;4939204;29;20062;-86
2021/04/14 11:48:09;;;;;;;8.60;5.15;;;10.40;99.90;;;;;;4939185;29;20513;-85
2021/04/14 11:50:36;;;;;;;9.77;5.00;;;10.40;99.90;;;;;;4938982;29;20110;-86
2021/04/14 11:53:03;;;;;;;7.00;4.93;;;10.50;99.90;;;;;;4938689;29;20388;-86
2021/04/14 11:55:34;;;;;;;8.85;5.63;;;10.60;99.90;;;;;;4938888;29;20134;-87
2021/04/14 11:58:01;;;;;;;9.38;5.70;;;10.60;99.90;;;;;;4945380;29;20122;-90
2021/04/14 12:00:30;;;;;;;12.30;6.78;;;10.60;99.90;;;;;;4941522;29;20056;-88
2021/04/14 12:03:00;;;;;;;12.98;5.53;;;10.70;99.90;;;;;;4938971;29;20059;-87
2021/04/14 12:05:27;;;;;;;11.32;5.85;;;10.70;99.90;;;;;;4946689;29;20056;-90
2021/04/14 12:07:53;;;;;;;9.98;5.10;;;9.60;99.90;;;;;;4939004;29;20462;-89
2021/04/14 12:10:20;;;;;;;8.07;5.43;;;10.60;99.90;;;;;;4939120;29;20113;-86
2021/04/14 12:12:48;;;;;;;9.48;4.78;;;10.50;99.50;;;;;;4941999;29;20051;-88
2021/04/14 12:15:15;;;;;;;6.45;4.60;;;10.50;99.90;;;;;;4942577;29;20110;-87
2021/04/14 12:17:43;;;;;;;9.27;4.95;;;10.50;99.90;;;;;;4939022;29;20135;-86
2021/04/14 12:20:10;;;;;;;9.25;4.97;;;10.40;99.90;;;;;;4938704;29;20051;-86
2021/04/14 12:22:38;;;;;;;6.28;4.60;;;10.50;99.90;;;;;;4938709;29;20366;-86
2021/04/14 12:25:05;;;;;;;7.35;3.95;;;10.50;99.90;;;;;;4938476;29;20114;-86
2021/04/14 12:27:32;;;;;;;5.95;3.88;;;10.60;99.20;;;;;;4938165;29;20052;-86
2021/04/14 12:29:58;;;;;;;5.35;3.72;;;10.70;99.30;;;;;;4938560;29;20051;-87
2021/04/14 12:32:25;;;;;;;6.35;3.65;;;10.90;97.60;;;;;;4938343;29;20062;-88
2021/04/14 12:34:52;;;;;;;6.88;4.43;;;11.00;96.40;;;;;;4938603;29;20055;-88
2021/04/14 12:37:19;;;;;;;6.30;4.53;;;11.20;98.00;;;;;;4938314;29;20052;-88
2021/04/14 12:39:46;;;;;;;7.38;3.67;;;11.30;98.30;;;;;;4938323;29;20121;-88
2021/04/14 12:42:12;;;;;;;10.07;4.97;;;11.40;97.70;;;;;;4938699;29;20055;-88
2021/04/14 12:44:39;;;;;;;12.68;5.85;;;11.60;97.50;;;;;;4938206;29;20061;-86
2021/04/14 12:47:12;;;;;;;7.28;4.32;;;11.80;98.80;;;;;;4938128;29;20102;-85
2021/04/14 12:49:42;;;;;;;5.95;4.10;;;11.80;95.10;;;;;;4938221;29;20106;-88
2021/04/14 12:52:10;;;;;;;8.20;3.80;;;11.90;95.90;;;;;;4938134;29;20182;-85
2021/04/14 12:54:37;;;;;;;7.18;3.47;;;11.80;94.60;;;;;;4938060;29;20439;-85
2021/04/14 12:57:04;;;;;;;4.88;3.20;;;11.80;93.40;;;;;;4938145;29;20055;-85
2021/04/14 12:59:32;;;;;;;4.55;2.72;;;11.70;93.00;;;;;;4938196;29;20056;-85
2021/04/14 13:02:03;;;;;;;10.13;3.95;;;11.70;92.10;;;;;;4937980;28;20164;-85
2021/04/14 13:04:31;;;;;;;5.20;3.15;;;11.60;90.00;;;;;;4937811;29;20055;-85
2021/04/14 13:07:00;;;;;;;11.88;5.18;;;11.50;90.70;;;;;;4937794;29;20062;-85
2021/04/14 13:09:27;;;;;;;8.00;4.28;;;11.40;91.10;;;;;;4937609;29;20055;-86
2021/04/14 13:11:57;;;;;;;5.43;3.33;;;11.40;91.80;;;;;;4937740;29;20054;-85
2021/04/14 13:14:24;;;;;;;6.68;3.83;;;11.40;91.60;;;;;;4938587;29;20059;-85
2021/04/14 13:16:52;;;;;;;6.13;3.90;;;11.40;89.70;;;;;;4937547;29;20461;-85
2021/04/14 13:19:18;;;;;;;4.70;3.30;;;11.30;90.30;;;;;;4937651;29;20194;-85
2021/04/14 13:21:49;;;;;;;6.10;3.30;;;11.30;92.00;;;;;;4936419;29;20130;-85
2021/04/14 13:24:21;;;;;;;7.57;3.08;;;11.40;89.80;;;;;;4936285;29;20055;-85
2021/04/14 13:26:52;;;;;;;6.97;3.40;;;11.30;84.50;;;;;;4937344;29;20048;-86
2021/04/14 13:29:22;;;;;;;4.78;3.10;;;11.20;85.40;;;;;;4937808;29;20070;-86
2021/04/14 13:31:52;;;;;;;4.53;2.95;;;11.20;86.40;;;;;;4937776;29;20062;-86
2021/04/14 13:34:22;;;;;;;5.18;3.30;;;11.10;89.80;;;;;;4937412;29;20138;-86
2021/04/14 13:36:52;;;;;;;5.93;3.60;;;11.10;91.10;;;;;;4936819;29;20058;-86
2021/04/14 13:39:21;;;;;;;6.00;3.60;;;11.10;91.50;;;;;;4937490;29;20134;-86
2021/04/14 13:41:51;;;;;;;6.40;3.70;;;11.20;90.80;;;;;;4937293;29;20055;-85
2021/04/14 13:44:19;;;;;;;5.82;3.78;;;11.50;90.40;;;;;;4937225;29;20062;-85
2021/04/14 13:46:48;;;;;;;4.20;3.20;;;11.70;79.40;;;;;;4937480;29;20117;-85
2021/04/14 13:49:17;;;;;;;5.65;3.83;;;11.80;81.30;;;;;;4937233;29;20062;-85
2021/04/14 13:51:46;;;;;;;9.27;4.97;;;12.00;83.10;;;;;;4937134;29;20058;-85
2021/04/14 13:54:13;;;;;;;6.65;4.60;;;12.10;83.50;;;;;;4937277;29;20052;-85
2021/04/14 13:56:43;;;;;;;9.77;3.63;;;12.20;83.50;;;;;;4937314;29;20113;-85
2021/04/14 13:59:14;;;;;;;5.95;3.35;;;12.20;81.00;;;;;;4937438;29;20056;-85
2021/04/14 14:01:44;;;;;;;4.65;3.13;;;12.10;80.80;;;;;;4937052;28;20063;-85
2021/04/14 14:04:10;;;;;;;5.00;3.35;;;12.10;74.50;;;;;;4937296;29;20067;-85
2021/04/14 14:06:49;;;;;;;8.52;2.92;;;12.00;74.60;;;;;;4937062;29;20380;-85
2021/04/14 14:09:16;;;;;;;5.10;2.65;;;11.80;79.80;;;;;;4937366;29;20065;-85
2021/04/14 14:11:43;;;;;;;5.88;3.13;;;11.80;79.20;;;;;;4937262;29;20130;-85
2021/04/14 14:14:12;;;;;;;5.97;2.95;;;11.80;78.70;;;;;;4937127;29;20117;-86
2021/04/14 14:16:41;;;;;;;6.15;2.88;;;11.90;75.90;;;;;;4937137;29;20062;-85
2021/04/14 14:19:15;;;;;;;5.65;2.90;;;11.90;72.50;;;;;;4937085;29;20052;-85
2021/04/14 14:21:42;;;;;;;3.93;2.93;;;11.90;74.20;;;;;;4937086;29;20058;-86
2021/04/14 14:24:08;;;;;;;5.07;3.25;;;11.80;72.70;;;;;;4937132;29;20364;-86
2021/04/14 14:26:36;;;;;;;4.85;3.20;;;11.80;74.00;;;;;;4937111;29;20481;-85
2021/04/14 14:29:03;;;;;;;6.07;3.05;;;11.70;73.40;;;;;;4936933;29;20401;-86
2021/04/14 14:31:30;;;;;;;5.22;3.20;;;11.70;75.80;;;;;;4937264;29;20057;-86
2021/04/14 14:33:58;;;;;;;6.40;3.40;;;11.70;76.40;;;;;;4936841;29;20503;-85
2021/04/14 14:36:30;;;;;;;5.90;2.85;;;11.80;77.50;;;;;;4936987;29;20055;-85
2021/04/14 14:39:18;;;;;;;5.18;3.05;;;11.80;74.70;;;;;;4937068;29;20134;-85
2021/04/14 14:41:46;;;;;;;5.85;3.42;;;11.90;74.60;;;;;;4937174;29;20056;-85
2021/04/14 14:44:15;;;;;;;6.18;2.70;;;11.90;75.00;;;;;;4936854;29;20070;-85
2021/04/14 14:46:43;;;;;;;7.55;3.88;;;11.80;76.20;;;;;;4936620;29;20460;-85
2021/04/14 14:49:12;;;;;;;4.28;2.75;;;11.70;78.10;;;;;;4939148;29;20055;-85
2021/04/14 14:51:39;;;;;;;4.78;2.67;;;11.70;76.20;;;;;;4940319;29;20163;-85
2021/04/14 14:54:06;;;;;;;3.67;2.20;;;11.60;73.70;;;;;;4940097;29;20060;-85
2021/04/14 14:56:35;;;;;;;3.50;2.70;;;11.50;72.50;;;;;;4940005;29;20051;-85
2021/04/14 14:59:08;;;;;;;5.57;2.28;;;11.50;73.00;;;;;;4940135;29;20056;-85
2021/04/14 15:01:34;;;;;;;5.03;2.00;;;11.50;69.10;;;;;;4940062;28;20056;-85
2021/04/14 15:04:03;;;;;;;2.83;1.88;;;11.50;69.40;;;;;;4939845;29;20059;-84
2021/04/14 15:06:29;;;;;;;17.48;2.17;;;11.40;70.60;;;;;;4940000;29;20064;-86
2021/04/14 15:08:56;;;;;;;8.98;2.63;;;11.40;68.30;;;;;;4940208;29;20051;-85
2021/04/14 15:11:23;;;;;;;6.03;1.98;;;11.40;70.20;;;;;;4939850;29;20473;-85
2021/04/14 15:13:49;;;;;;;4.13;1.95;;;11.40;71.30;;;;;;4939959;29;20048;-86
2021/04/14 15:16:16;;;;;;;3.47;1.85;;;11.40;69.00;;;;;;4940034;29;20058;-86
2021/04/14 15:18:43;;;;;;;3.85;2.17;;;11.40;68.70;;;;;;4940144;29;20054;-85
2021/04/14 15:21:11;;;;;;;3.92;1.90;;;11.40;68.20;;;;;;4939845;29;20056;-86
2021/04/14 15:23:37;;;;;;;2.92;1.63;;;11.50;69.30;;;;;;4940060;29;20048;-86
2021/04/14 15:26:08;;;;;;;4.88;2.15;;;11.50;67.90;;;;;;4939482;29;20378;-86
2021/04/14 15:28:36;;;;;;;3.15;1.60;;;11.50;69.10;;;;;;4939467;29;20047;-86
2021/04/14 15:31:03;;;;;;;4.65;2.40;;;11.60;67.10;;;;;;4939002;29;20055;-86
2021/04/14 15:33:29;;;;;;;4.40;2.22;;;11.60;67.30;;;;;;4938327;29;20055;-86
2021/04/14 15:35:56;;;;;;;3.80;2.33;;;11.70;65.70;;;;;;4939546;29;20484;-85
2021/04/14 15:38:23;;;;;;;4.88;2.40;;;11.70;64.80;;;;;;4939224;29;20102;-86
2021/04/14 15:40:50;;;;;;;3.47;2.30;;;11.80;66.70;;;;;;4939336;29;20405;-86
2021/04/14 15:43:17;;;;;;;4.13;1.80;;;11.80;68.10;;;;;;4939699;29;20047;-86
2021/04/14 15:45:43;;;;;;;4.93;3.20;;;11.70;68.00;;;;;;4939328;29;20106;-86
2021/04/14 15:48:10;;;;;;;4.20;2.85;;;11.70;68.90;;;;;;4939238;29;20069;-86
2021/04/14 15:50:38;;;;;;;4.32;2.10;;;11.50;64.20;;;;;;4939161;29;20480;-86
2021/04/14 15:53:05;;;;;;;6.43;1.88;;;11.40;66.20;;;;;;4939346;29;20358;-86
2021/04/14 15:55:33;;;;;;;5.35;2.10;;;11.30;67.60;;;;;;4939277;29;20052;-86
2021/04/14 15:58:01;;;;;;;11.10;2.22;;;11.40;69.10;;;;;;4938953;29;20058;-86
2021/04/14 16:00:30;;;;;;;2.78;1.80;;;11.40;67.80;;;;;;4938338;29;20058;-86
2021/04/14 16:02:57;;;;;;;2.47;1.50;;;11.50;67.70;;;;;;4938756;28;20119;-86
2021/04/14 16:05:24;;;;;;;6.00;2.42;;;11.70;67.40;;;;;;4939013;29;20121;-86
2021/04/14 16:07:51;;;;;;;4.20;1.92;;;11.80;66.20;;;;;;4938973;29;20086;-86
2021/04/14 16:10:18;;;;;;;5.40;2.13;;;11.90;62.80;;;;;;4938897;29;20384;-86
2021/04/14 16:12:46;;;;;;;7.38;1.98;;;12.00;64.70;;;;;;4938856;29;20052;-86
2021/04/14 16:15:13;;;;;;;4.68;2.35;;;12.10;63.80;;;;;;4938576;29;20048;-86
2021/04/14 16:17:40;;;;;;;4.97;2.53;;;12.10;64.50;;;;;;4938521;29;20052;-86
2021/04/14 16:20:07;;;;;;;9.48;2.72;;;12.20;62.70;;;;;;4938654;29;20106;-86
2021/04/14 16:22:34;;;;;;;4.60;2.35;;;12.20;63.50;;;;;;4921932;29;20355;-86
2021/04/14 16:25:01;;;;;;;3.70;1.98;;;12.20;64.30;;;;;;4919714;29;20048;-86
2021/04/14 16:27:27;;;;;;;4.72;2.25;;;12.20;63.60;;;;;;4919695;29;20048;-86
2021/04/14 16:29:57;;;;;;;4.30;1.98;;;12.10;63.40;;;;;;4919240;29;20060;-86
2021/04/14 16:32:23;;;;;;;7.35;2.22;;;12.00;64.90;;;;;;4919446;29;20397;-87
2021/04/14 16:34:50;;;;;;;2.25;1.50;;;11.90;63.20;;;;;;4919502;29;20060;-86
2021/04/14 16:37:17;;;;;;;7.00;1.60;;;11.70;63.30;;;;;;4919008;29;20052;-86
2021/04/14 16:39:43;;;;;;;2.72;2.00;;;11.60;64.10;;;;;;4919563;29;20048;-87
2021/04/14 16:42:10;;;;;;;5.20;2.97;;;11.50;62.20;;;;;;4927565;29;20048;-86
2021/04/14 16:44:37;;;;;;;4.78;2.35;;;11.40;63.50;;;;;;4927993;29;20043;-87
2021/04/14 16:47:04;;;;;;;3.30;1.60;;;11.30;65.40;;;;;;4929333;29;20078;-87
2021/04/14 16:49:31;;;;;;;3.30;1.50;;;11.20;64.20;;;;;;4927641;29;20052;-87
2021/04/14 16:51:58;;;;;;;4.63;1.63;;;11.10;64.20;;;;;;4927891;29;20059;-87
2021/04/14 16:54:24;;;;;;;4.15;1.50;;;11.10;63.80;;;;;;4929189;29;20110;-87
2021/04/14 16:56:51;;;;;;;6.53;2.00;;;11.00;68.10;;;;;;4921331;29;20080;-87
2021/04/14 16:59:18;;;;;;;5.25;1.45;;;11.00;64.00;;;;;;4919107;29;20048;-87
2021/04/14 17:01:45;;;;;;;7.45;1.83;;;10.90;65.10;;;;;;4918984;29;20146;-87
2021/04/14 17:04:12;;;;;;;3.72;1.58;;;10.90;64.40;;;;;;4919000;29;20393;-86
2021/04/14 17:06:39;;;;;;;2.08;1.00;;;10.90;65.30;;;;;;4918828;29;20052;-87
2021/04/14 17:09:06;;;;;;;2.22;1.20;;;10.90;65.80;;;;;;4919035;29;20079;-87
2021/04/14 17:11:33;;;;;;;4.38;1.30;;;10.90;66.20;;;;;;4918184;29;20051;-87
2021/04/14 17:13:59;;;;;;;2.67;1.42;;;10.90;65.40;;;;;;4918536;29;20062;-87
2021/04/14 17:16:27;;;;;;;1.58;0.95;;;10.90;68.00;;;;;;4918634;29;20087;-87
2021/04/14 17:18:53;;;;;;;7.00;1.52;;;10.80;68.10;;;;;;4918448;29;20441;-87
2021/04/14 17:21:23;;;;;;;2.35;1.33;;;10.80;66.90;;;;;;4918029;29;20056;-87
2021/04/14 17:23:49;;;;;;;3.67;1.30;;;10.80;65.80;;;;;;4918298;29;20056;-87
2021/04/14 17:26:16;;;;;;;2.45;1.60;;;10.80;66.10;;;;;;4918482;29;20103;-87
2021/04/14 17:28:43;;;;;;;2.85;0.98;;;10.70;66.90;;;;;;4918900;29;20058;-87
2021/04/14 17:31:09;;;;;;;2.40;1.20;;;10.70;66.60;;;;;;4918789;29;20059;-87
2021/04/14 17:33:36;;;;;;;3.15;1.00;;;10.60;67.30;;;;;;4918406;29;20095;-87
2021/04/14 17:36:05;;;;;;;1.48;0.90;;;10.60;66.40;;;;;;4918396;29;20047;-87
2021/04/14 17:38:33;;;;;;;4.68;1.50;;;10.60;67.10;;;;;;4918404;29;20044;-87
2021/04/14 17:40:59;;;;;;;2.03;1.30;;;10.60;65.80;;;;;;4918401;29;20055;-87
2021/04/14 17:43:26;;;;;;;7.32;3.35;;;10.60;66.00;;;;;;4918326;29;20533;-87
2021/04/14 17:45:53;;;;;;;4.10;1.25;;;10.60;66.00;;;;;;4918196;29;20099;-87
2021/04/14 17:48:19;;;;;;;3.88;1.42;;;10.50;65.90;;;;;;4918434;29;20377;-87
2021/04/14 17:50:46;;;;;;;6.05;1.23;;;10.60;66.20;;;;;;4918262;29;20056;-87
2021/04/14 17:53:13;;;;;;;3.50;0.90;;;10.50;66.10;;;;;;4918393;29;20048;-87
2021/04/14 17:55:41;;;;;;;1.67;1.25;;;10.50;65.50;;;;;;4918378;29;20111;-87
2021/04/14 17:58:08;;;;;;;1.88;1.30;;;10.50;63.60;;;;;;4918107;29;20059;-87
2021/04/14 18:00:36;;;;;;;3.55;1.20;;;10.50;64.20;;;;;;4918027;29;20071;-87
2021/04/14 18:03:03;;;;;;;3.58;1.10;;;10.50;65.20;;;;;;4918490;29;20063;-87
2021/04/14 18:05:29;;;;;;;3.85;1.55;;;10.60;65.70;;;;;;4918109;29;20446;-86
2021/04/14 18:07:56;;;;;;;5.80;2.00;;;10.50;67.00;;;;;;4918358;29;20066;-87
2021/04/14 18:10:24;;;;;;;2.10;1.30;;;10.40;67.60;;;;;;4918221;29;20083;-86
2021/04/14 18:12:51;;;;;;;4.63;1.70;;;10.40;68.20;;;;;;4918200;29;20070;-87
2021/04/14 18:15:18;;;;;;;6.65;2.00;;;10.30;68.40;;;;;;4918304;29;20139;-87
2021/04/14 18:17:45;;;;;;;2.95;1.33;;;10.30;70.60;;;;;;4917347;29;20052;-87
2021/04/14 18:20:13;;;;;;;3.65;1.63;;;10.20;68.50;;;;;;4918240;29;20127;-87
2021/04/14 18:22:39;;;;;;;3.08;2.38;;;10.20;68.50;;;;;;4917990;29;20063;-87
2021/04/14 18:25:07;;;;;;;2.92;1.55;;;10.10;69.80;;;;;;4921537;29;20120;-87
2021/04/14 18:27:34;;;;;;;2.58;1.35;;;10.10;69.10;;;;;;4921596;29;20048;-87
2021/04/14 18:30:01;;;;;;;8.02;1.77;;;10.00;70.10;;;;;;4921504;29;20052;-87
2021/04/14 18:32:28;;;;;;;5.30;1.85;;;10.10;69.80;;;;;;4921766;29;20052;-88
2021/04/14 18:34:55;;;;;;;4.97;1.63;;;10.00;71.10;;;;;;4921739;29;20136;-87
2021/04/14 18:37:21;;;;;;;3.33;1.35;;;10.00;71.90;;;;;;4921326;29;20480;-88
2021/04/14 18:39:48;;;;;;;7.10;1.50;;;10.00;73.80;;;;;;4921546;29;20060;-88
2021/04/14 18:42:15;;;;;;;4.90;1.50;;;9.90;78.10;;;;;;4921411;29;20059;-88
2021/04/14 18:44:41;;;;;;;4.45;1.50;;;9.80;76.10;;;;;;4921528;29;20063;-88
2021/04/14 18:47:09;;;;;;;5.18;1.60;;;9.70;76.80;;;;;;4921402;29;20052;-88
2021/04/14 18:49:36;;;;;;;3.15;1.55;;;9.60;77.40;;;;;;4919132;29;20142;-87
2021/04/14 18:52:03;;;;;;;4.80;1.58;;;9.60;77.40;;;;;;4925816;29;20102;-87
2021/04/14 18:54:30;;;;;;;4.72;1.85;;;9.50;79.40;;;;;;4902420;29;20131;-87
2021/04/14 18:56:59;;;;;;;9.98;2.10;;;9.40;84.70;;;;;;4902126;29;20080;-88
2021/04/14 18:59:26;;;;;;;3.60;1.75;;;9.30;85.70;;;;;;4902002;29;20053;-87
2021/04/14 19:02:01;;;;;;;6.97;1.30;;;9.30;84.20;;;;;;4926081;29;20392;-87
2021/04/14 19:04:29;;;;;;;9.35;1.48;;;9.30;82.00;;;;;;4920854;29;20130;-87
2021/04/14 19:06:57;;;;;;;5.95;1.58;;;9.20;84.50;;;;;;4920614;29;20056;-88
2021/04/14 19:09:24;;;;;;;2.47;1.15;;;9.20;84.30;;;;;;4920923;29;20182;-88
2021/04/14 19:11:54;;;;;;;4.55;1.33;;;9.10;85.70;;;;;;4921243;29;20044;-87
2021/04/14 19:14:21;;;;;;;5.22;1.70;;;9.10;87.00;;;;;;4921300;29;20098;-89
2021/04/14 19:16:48;;;;;;;4.07;1.40;;;9.10;88.40;;;;;;4921105;29;20103;-89
2021/04/14 19:19:17;;;;;;;2.35;1.13;;;9.00;88.80;;;;;;4921274;29;20067;-92
2021/04/14 19:21:45;;;;;;;4.38;1.58;;;8.90;90.60;;;;;;4939969;29;20059;-88
2021/04/14 19:24:14;;;;;;;4.80;1.77;;;8.80;91.00;;;;;;4939920;29;20392;-88
2021/04/14 19:26:41;;;;;;;9.07;2.45;;;8.80;92.10;;;;;;4934942;29;20061;-90
2021/04/14 19:29:07;;;;;;;2.47;1.55;;;8.70;93.30;;;;;;4920095;29;20054;-89
2021/04/14 19:31:34;;;;;;;2.45;1.30;;;8.60;94.50;;;;;;4919507;29;20056;-89
2021/04/14 19:34:01;;;;;;;3.75;1.60;;;8.60;95.10;;;;;;4920174;29;20118;-89
2021/04/14 19:36:28;;;;;;;4.45;1.95;;;8.50;94.70;;;;;;4919692;29;20056;-89
2021/04/14 19:38:56;;;;;;;8.93;1.70;;;8.40;95.20;;;;;;4920521;29;20350;-89
2021/04/14 19:41:23;;;;;;;3.33;1.92;;;8.40;95.10;;;;;;4927486;29;20054;-89
2021/04/14 19:43:49;;;;;;;4.07;1.90;;;8.30;95.80;;;;;;4924306;29;20052;-90
2021/04/14 19:46:16;;;;;;;24.65;2.42;;;8.30;97.80;;;;;;4936817;29;20055;-89
2021/04/14 19:48:42;;;;;;;6.20;2.53;;;8.20;97.10;;;;;;4939196;29;20058;-90
2021/04/14 19:51:10;;;;;;;39.80;2.58;;;8.20;97.50;;;;;;4928896;29;20139;-88
2021/04/14 19:53:37;;;;;;;4.82;1.50;;;8.10;97.70;;;;;;4927978;29;20086;-89
2021/04/14 19:56:05;;;;;;;3.55;1.52;;;8.10;97.50;;;;;;4927897;29;20127;-88
2021/04/14 19:58:32;;;;;;;3.80;2.33;;;8.00;97.90;;;;;;4923779;29;20059;-91
2021/04/14 20:01:02;;;;;;;5.13;1.95;;;8.00;97.80;;;;;;4935775;29;20055;-89
2021/04/14 20:03:29;;;;;;;7.03;1.95;;;7.90;98.10;;;;;;4939156;29;20146;-89
2021/04/14 20:05:56;;;;;;;6.43;2.40;;;7.90;98.10;;;;;;4938990;29;20139;-89
2021/04/14 20:08:23;;;;;;;3.42;1.75;;;7.80;98.60;;;;;;4923044;29;20044;-88
2021/04/14 20:10:52;;;;;;;6.65;1.70;;;7.80;98.90;;;;;;4919706;29;20536;-88
2021/04/14 20:13:20;;;;;;;6.03;1.90;;;7.70;99.20;;;;;;4919823;29;20106;-87
2021/04/14 20:15:46;;;;;;;4.97;2.30;;;7.60;99.70;;;;;;4924396;29;20146;-88
2021/04/14 20:18:13;;;;;;;4.03;2.08;;;7.60;99.90;;;;;;4919651;29;20056;-88
2021/04/14 20:20:40;;;;;;;4.72;1.70;;;7.50;99.90;;;;;;4930860;29;20048;-88
2021/04/14 20:23:07;;;;;;;4.97;1.63;;;7.50;99.90;;;;;;4936036;29;20052;-88
2021/04/14 20:25:36;;;;;;;6.30;1.67;;;7.40;99.90;;;;;;4927888;29;20048;-88
2021/04/14 20:28:08;;;;;;;4.72;1.52;;;7.40;99.90;;;;;;4922334;29;20119;-89
2021/04/14 20:30:35;;;;;;;4.45;1.85;;;7.40;99.90;;;;;;4919992;29;20370;-88
2021/04/14 20:33:02;;;;;;;3.42;1.98;;;7.30;99.90;;;;;;4919939;29;20056;-89
2021/04/14 20:35:29;;;;;;;3.53;1.90;;;7.30;99.90;;;;;;4919850;29;20146;-88
2021/04/14 20:37:56;;;;;;;9.55;2.20;;;7.30;99.90;;;;;;4919862;29;20082;-88
2021/04/14 20:40:23;;;;;;;6.25;2.22;;;7.30;99.90;;;;;;4919801;29;20071;-89
2021/04/14 20:42:50;;;;;;;6.07;1.90;;;7.20;99.90;;;;;;4924465;29;20052;-88
2021/04/14 20:45:18;;;;;;;8.65;2.80;;;7.20;99.90;;;;;;4926962;29;20078;-88
2021/04/14 20:47:46;;;;;;;4.63;2.13;;;7.10;99.90;;;;;;4929856;29;20055;-87
2021/04/14 20:50:14;;;;;;;9.68;2.60;;;7.10;99.90;;;;;;4928745;29;20055;-86